Los Ebanos, TX

5:22 AM CDT en Septiembre 23, 2014 (GMT -0500)
South Texas | Change Station
CLOSE
Current Station
Estación meteorológica personal
Location: Mission, TX
Altura: 236 ft
Estaciones meteorológicas cercanas

Alt 236 ft 26.32 °N, 98.46 °W | Updated 10 seconds ago

Despejado
Despejado
69.3 ° F
Sensación térmica 69.3 ° F
N
0.0
Viento Variable Viento desde NE
Gusts 0.0 mph

Hoy
Alta -- | Baja -- ° F
--% Posibilidad de precipitaciones
Ayer
Alta -- | Baja -- ° F
Precip. -- pul
7:22 AM 7:28 PM
Creciente menguante, 1% visible
Presión 30.01 pul
Visibilidad 8.0 Millas
Nubes Despejado
Punto de rocío 68 ° F
Humedad 94%
Precipitaciones 0.00 pul
Espesor de la nieve No disponible.
UV 0.0 de una escala de 12
Polen 9.30 de una escala de 12
Ozono Buena
PM2.5 Buena
Flu Activity No disponible.
METAR KMFE 230953Z AUTO 35003KT 8SM CLR 22/22 A3002 RMK AO2 SLP162 T02220217

More Conditions Fewer Conditions

Presión 30.01 pul
Visibilidad 8.0 Millas
Nubes Despejado
Punto de rocío 68 ° F
Humedad 94%
Precipitaciones 0.00 pul
Espesor de la nieve No disponible.
UV 0.0 de una escala de 12
Polen 9.30 de una escala de 12
Ozono Buena
PM2.5 Buena
Flu Activity No disponible.
METAR KMFE 230953Z AUTO 35003KT 8SM CLR 22/22 A3002 RMK AO2 SLP162 T02220217

More Conditions Fewer Conditions

Nowcast | as of 5:07 am CDT on September 23, 2014

Through 7 am...patchy fog will affect the Mid Valley. Visibilities will range from 3 to 5 miles with localized areas possibly dropping to near 1 mile. Motorists are reminded to drive with caution when encountering areas of reduced visibility.

×

10-Day Weather Forecast

Almanac

Astronomía

Sep. 23, 2014 Salida Puesta
Hora real 7:22 AM CDT 7:28 PM CDT
Crepúsculo civil 6:59 AM CDT 7:51 PM CDT
Crepúsculo náutico 6:32 AM CDT 8:18 PM CDT
Crepúsculo astronómico 6:05 AM CDT 8:45 PM CDT
Luna 6:49 AM CDT 7:10 PM CDT
Horas de luz 12h 52m
Horas de luz
12h 06m
Tomorrow will be 1m 32s shorter.
Creciente menguante, 1% of the Moon is Illuminated
Hoy
Creciente menguante
Sep 24
Nueva
Oct 1
Cuarto creciente
Oct 8
Luna llena
Oct 15
Cuarto menguante

Extremos de hoy

Máximos del estado Bajos del estado

Community

WunderPhotos

Upload Photos

1,755,645 ¡fotos cargadas!

Nearby

Calidad del aire

  Calidad del aire Índice AQ Contaminante
Ayer Buena
OZONE
Ayer Buena
PM2.5
Real Buena
PM2.5
Real Buena
OZONE
Martes Buena
PM10
Martes Buena
OZONE
Miércoles Buena
PM10
Miércoles Buena
OZONE
Jueves Buena
PM10
Jueves Buena
OZONE

Grosos de nieve

Estación Profundido Altura
No tenemos constancia de nieve nueva.

Actividad de terremotos

Ciudad Distance Mag. Tiempo y dato
No hay informes recientes de la actividad sísmica.
Magnitud mínima muestra es 2,5.

Temperaturas de aguas costeras

Lugar Temperatura
Sin partes meteorológicos de las estaciones

Estaciones meteorológicas cercanas